sensor_id;sensor_type;location;lat;lon;timestamp;P1;durP1;ratioP1;P2;durP2;ratioP2
5929;SDS011;2990;48.746;9.236;2022-12-08T00:00:11;3.38;;;2.53;;
5929;SDS011;2990;48.746;9.236;2022-12-08T00:02:37;1.27;;;1.27;;
5929;SDS011;2990;48.746;9.236;2022-12-08T00:05:03;1.70;;;1.70;;
5929;SDS011;2990;48.746;9.236;2022-12-08T00:07:47;1.85;;;1.85;;
5929;SDS011;2990;48.746;9.236;2022-12-08T00:10:31;1.27;;;1.27;;
5929;SDS011;2990;48.746;9.236;2022-12-08T00:12:57;1.10;;;1.10;;
5929;SDS011;2990;48.746;9.236;2022-12-08T00:15:22;1.60;;;1.60;;
5929;SDS011;2990;48.746;9.236;2022-12-08T00:17:48;1.88;;;1.88;;
5929;SDS011;2990;48.746;9.236;2022-12-08T00:20:13;2.08;;;2.08;;
5929;SDS011;2990;48.746;9.236;2022-12-08T00:22:39;1.83;;;1.83;;
5929;SDS011;2990;48.746;9.236;2022-12-08T00:25:05;2.20;;;2.20;;
5929;SDS011;2990;48.746;9.236;2022-12-08T00:27:32;1.58;;;1.58;;
5929;SDS011;2990;48.746;9.236;2022-12-08T00:29:57;1.15;;;1.15;;
5929;SDS011;2990;48.746;9.236;2022-12-08T00:32:23;9.73;;;1.60;;
5929;SDS011;2990;48.746;9.236;2022-12-08T00:34:48;1.38;;;1.38;;
5929;SDS011;2990;48.746;9.236;2022-12-08T00:37:14;1.70;;;1.70;;
5929;SDS011;2990;48.746;9.236;2022-12-08T00:39:39;2.08;;;1.98;;
5929;SDS011;2990;48.746;9.236;2022-12-08T00:42:05;1.13;;;1.13;;
5929;SDS011;2990;48.746;9.236;2022-12-08T00:44:37;1.10;;;1.10;;
5929;SDS011;2990;48.746;9.236;2022-12-08T00:47:06;1.25;;;1.25;;
5929;SDS011;2990;48.746;9.236;2022-12-08T00:49:32;1.10;;;1.10;;
5929;SDS011;2990;48.746;9.236;2022-12-08T00:51:57;1.20;;;1.20;;
5929;SDS011;2990;48.746;9.236;2022-12-08T00:54:23;1.42;;;1.42;;
5929;SDS011;2990;48.746;9.236;2022-12-08T00:56:48;1.10;;;1.10;;
5929;SDS011;2990;48.746;9.236;2022-12-08T00:59:14;1.30;;;1.30;;
5929;SDS011;2990;48.746;9.236;2022-12-08T01:01:42;0.90;;;0.90;;
5929;SDS011;2990;48.746;9.236;2022-12-08T01:04:09;1.42;;;1.42;;
5929;SDS011;2990;48.746;9.236;2022-12-08T01:06:39;1.67;;;1.67;;
5929;SDS011;2990;48.746;9.236;2022-12-08T01:09:05;1.02;;;1.02;;
5929;SDS011;2990;48.746;9.236;2022-12-08T01:11:33;1.70;;;1.70;;
5929;SDS011;2990;48.746;9.236;2022-12-08T01:13:59;1.15;;;1.15;;
5929;SDS011;2990;48.746;9.236;2022-12-08T01:16:26;1.15;;;1.15;;
5929;SDS011;2990;48.746;9.236;2022-12-08T01:18:54;0.82;;;0.82;;
5929;SDS011;2990;48.746;9.236;2022-12-08T01:21:21;0.98;;;0.98;;
5929;SDS011;2990;48.746;9.236;2022-12-08T01:23:47;1.45;;;1.45;;
5929;SDS011;2990;48.746;9.236;2022-12-08T01:26:14;1.08;;;1.08;;
5929;SDS011;2990;48.746;9.236;2022-12-08T01:28:41;0.88;;;0.88;;
5929;SDS011;2990;48.746;9.236;2022-12-08T01:31:15;0.90;;;0.90;;
5929;SDS011;2990;48.746;9.236;2022-12-08T01:33:42;1.13;;;1.13;;
5929;SDS011;2990;48.746;9.236;2022-12-08T01:36:09;0.70;;;0.70;;
5929;SDS011;2990;48.746;9.236;2022-12-08T01:38:46;0.95;;;0.95;;
5929;SDS011;2990;48.746;9.236;2022-12-08T01:41:16;1.00;;;1.00;;
5929;SDS011;2990;48.746;9.236;2022-12-08T01:43:59;1.70;;;1.60;;
5929;SDS011;2990;48.746;9.236;2022-12-08T01:46:49;0.70;;;0.70;;
5929;SDS011;2990;48.746;9.236;2022-12-08T01:49:21;0.90;;;0.90;;
5929;SDS011;2990;48.746;9.236;2022-12-08T01:54:32;0.60;;;0.60;;
5929;SDS011;2990;48.746;9.236;2022-12-08T01:59:27;1.00;;;0.85;;
5929;SDS011;2990;48.746;9.236;2022-12-08T02:01:55;1.00;;;1.00;;
5929;SDS011;2990;48.746;9.236;2022-12-08T02:04:21;0.73;;;0.73;;
5929;SDS011;2990;48.746;9.236;2022-12-08T02:06:48;0.80;;;0.80;;
5929;SDS011;2990;48.746;9.236;2022-12-08T02:09:15;0.63;;;0.63;;
5929;SDS011;2990;48.746;9.236;2022-12-08T02:11:41;0.88;;;0.88;;
5929;SDS011;2990;48.746;9.236;2022-12-08T02:14:07;0.65;;;0.65;;
5929;SDS011;2990;48.746;9.236;2022-12-08T02:40:59;0.80;;;0.80;;
5929;SDS011;2990;48.746;9.236;2022-12-08T02:43:47;0.70;;;0.70;;
5929;SDS011;2990;48.746;9.236;2022-12-08T02:46:20;0.60;;;0.60;;
5929;SDS011;2990;48.746;9.236;2022-12-08T02:48:51;0.50;;;0.50;;
5929;SDS011;2990;48.746;9.236;2022-12-08T02:51:17;0.60;;;0.60;;
5929;SDS011;2990;48.746;9.236;2022-12-08T02:53:43;0.50;;;0.50;;
5929;SDS011;2990;48.746;9.236;2022-12-08T02:56:34;0.88;;;0.88;;
5929;SDS011;2990;48.746;9.236;2022-12-08T03:01:41;0.80;;;0.80;;
5929;SDS011;2990;48.746;9.236;2022-12-08T03:09:48;1.00;;;1.00;;
5929;SDS011;2990;48.746;9.236;2022-12-08T03:14:55;0.60;;;0.60;;
5929;SDS011;2990;48.746;9.236;2022-12-08T03:17:24;0.60;;;0.60;;
5929;SDS011;2990;48.746;9.236;2022-12-08T03:19:54;1.20;;;1.20;;
5929;SDS011;2990;48.746;9.236;2022-12-08T03:22:23;0.60;;;0.60;;
5929;SDS011;2990;48.746;9.236;2022-12-08T03:24:51;0.90;;;0.90;;
5929;SDS011;2990;48.746;9.236;2022-12-08T03:27:22;0.57;;;0.57;;
5929;SDS011;2990;48.746;9.236;2022-12-08T03:29:53;0.60;;;0.60;;
5929;SDS011;2990;48.746;9.236;2022-12-08T03:34:59;0.50;;;0.50;;
5929;SDS011;2990;48.746;9.236;2022-12-08T03:37:27;0.77;;;0.77;;
5929;SDS011;2990;48.746;9.236;2022-12-08T03:39:54;1.48;;;1.48;;
5929;SDS011;2990;48.746;9.236;2022-12-08T03:42:20;2.40;;;0.75;;
5929;SDS011;2990;48.746;9.236;2022-12-08T03:44:45;0.80;;;0.80;;
5929;SDS011;2990;48.746;9.236;2022-12-08T03:47:11;0.55;;;0.55;;
5929;SDS011;2990;48.746;9.236;2022-12-08T03:49:37;0.60;;;0.60;;
5929;SDS011;2990;48.746;9.236;2022-12-08T03:52:02;0.82;;;0.63;;
5929;SDS011;2990;48.746;9.236;2022-12-08T03:54:28;0.85;;;0.85;;
5929;SDS011;2990;48.746;9.236;2022-12-08T03:56:54;1.20;;;0.77;;
5929;SDS011;2990;48.746;9.236;2022-12-08T03:59:19;0.98;;;0.65;;
5929;SDS011;2990;48.746;9.236;2022-12-08T04:01:45;0.60;;;0.60;;
5929;SDS011;2990;48.746;9.236;2022-12-08T04:04:11;0.75;;;0.75;;
5929;SDS011;2990;48.746;9.236;2022-12-08T04:06:36;0.68;;;0.68;;
5929;SDS011;2990;48.746;9.236;2022-12-08T04:09:02;0.50;;;0.50;;
5929;SDS011;2990;48.746;9.236;2022-12-08T04:11:28;0.95;;;0.95;;
5929;SDS011;2990;48.746;9.236;2022-12-08T04:13:54;0.70;;;0.70;;
5929;SDS011;2990;48.746;9.236;2022-12-08T04:16:20;0.40;;;0.40;;
5929;SDS011;2990;48.746;9.236;2022-12-08T04:18:48;0.60;;;0.60;;
5929;SDS011;2990;48.746;9.236;2022-12-08T04:21:14;0.60;;;0.60;;
5929;SDS011;2990;48.746;9.236;2022-12-08T04:23:39;0.73;;;0.73;;
5929;SDS011;2990;48.746;9.236;2022-12-08T04:26:05;0.88;;;0.88;;
5929;SDS011;2990;48.746;9.236;2022-12-08T04:28:31;0.63;;;0.63;;
5929;SDS011;2990;48.746;9.236;2022-12-08T04:30:57;0.70;;;0.70;;
5929;SDS011;2990;48.746;9.236;2022-12-08T04:33:23;0.70;;;0.57;;
5929;SDS011;2990;48.746;9.236;2022-12-08T04:35:49;0.43;;;0.43;;
5929;SDS011;2990;48.746;9.236;2022-12-08T04:38:15;0.73;;;0.73;;
5929;SDS011;2990;48.746;9.236;2022-12-08T04:40:40;0.60;;;0.60;;
5929;SDS011;2990;48.746;9.236;2022-12-08T04:43:06;0.60;;;0.60;;
5929;SDS011;2990;48.746;9.236;2022-12-08T04:45:32;0.90;;;0.88;;
5929;SDS011;2990;48.746;9.236;2022-12-08T04:47:58;0.40;;;0.40;;
5929;SDS011;2990;48.746;9.236;2022-12-08T04:50:24;0.50;;;0.50;;
5929;SDS011;2990;48.746;9.236;2022-12-08T04:52:50;1.08;;;0.93;;
5929;SDS011;2990;48.746;9.236;2022-12-08T04:55:16;0.55;;;0.55;;
5929;SDS011;2990;48.746;9.236;2022-12-08T04:57:41;0.70;;;0.70;;
5929;SDS011;2990;48.746;9.236;2022-12-08T05:00:07;0.40;;;0.40;;
5929;SDS011;2990;48.746;9.236;2022-12-08T05:02:34;0.47;;;0.47;;
5929;SDS011;2990;48.746;9.236;2022-12-08T05:05:00;0.47;;;0.47;;
5929;SDS011;2990;48.746;9.236;2022-12-08T05:07:25;0.50;;;0.50;;
5929;SDS011;2990;48.746;9.236;2022-12-08T05:09:51;0.50;;;0.50;;
5929;SDS011;2990;48.746;9.236;2022-12-08T05:12:16;0.83;;;0.83;;
5929;SDS011;2990;48.746;9.236;2022-12-08T05:14:42;0.70;;;0.70;;
5929;SDS011;2990;48.746;9.236;2022-12-08T05:17:08;0.60;;;0.60;;
5929;SDS011;2990;48.746;9.236;2022-12-08T05:19:33;0.50;;;0.50;;
5929;SDS011;2990;48.746;9.236;2022-12-08T05:21:59;0.73;;;0.73;;
5929;SDS011;2990;48.746;9.236;2022-12-08T05:24:24;0.43;;;0.43;;
5929;SDS011;2990;48.746;9.236;2022-12-08T05:26:50;1.00;;;1.00;;
5929;SDS011;2990;48.746;9.236;2022-12-08T05:29:16;0.50;;;0.50;;
5929;SDS011;2990;48.746;9.236;2022-12-08T05:31:41;0.70;;;0.70;;
5929;SDS011;2990;48.746;9.236;2022-12-08T05:34:07;0.45;;;0.45;;
5929;SDS011;2990;48.746;9.236;2022-12-08T05:36:32;0.52;;;0.52;;
5929;SDS011;2990;48.746;9.236;2022-12-08T05:38:58;0.40;;;0.40;;
5929;SDS011;2990;48.746;9.236;2022-12-08T05:41:23;0.60;;;0.60;;
5929;SDS011;2990;48.746;9.236;2022-12-08T05:43:49;1.00;;;1.00;;
5929;SDS011;2990;48.746;9.236;2022-12-08T05:46:15;0.45;;;0.45;;
5929;SDS011;2990;48.746;9.236;2022-12-08T05:48:41;0.70;;;0.70;;
5929;SDS011;2990;48.746;9.236;2022-12-08T05:51:08;1.05;;;1.05;;
5929;SDS011;2990;48.746;9.236;2022-12-08T05:53:43;0.50;;;0.50;;
5929;SDS011;2990;48.746;9.236;2022-12-08T05:56:09;0.40;;;0.40;;
5929;SDS011;2990;48.746;9.236;2022-12-08T05:58:35;0.60;;;0.60;;
5929;SDS011;2990;48.746;9.236;2022-12-08T06:01:00;0.82;;;0.82;;
5929;SDS011;2990;48.746;9.236;2022-12-08T06:03:27;0.70;;;0.70;;
5929;SDS011;2990;48.746;9.236;2022-12-08T06:05:52;0.45;;;0.45;;
5929;SDS011;2990;48.746;9.236;2022-12-08T06:08:18;0.50;;;0.50;;
5929;SDS011;2990;48.746;9.236;2022-12-08T06:10:45;0.95;;;0.95;;
5929;SDS011;2990;48.746;9.236;2022-12-08T06:13:11;0.82;;;0.52;;
5929;SDS011;2990;48.746;9.236;2022-12-08T06:15:37;1.03;;;0.73;;
5929;SDS011;2990;48.746;9.236;2022-12-08T06:18:04;0.43;;;0.43;;
5929;SDS011;2990;48.746;9.236;2022-12-08T06:20:30;1.60;;;1.00;;
5929;SDS011;2990;48.746;9.236;2022-12-08T06:22:56;0.77;;;0.77;;
5929;SDS011;2990;48.746;9.236;2022-12-08T06:25:22;0.50;;;0.50;;
5929;SDS011;2990;48.746;9.236;2022-12-08T06:27:48;1.00;;;1.00;;
5929;SDS011;2990;48.746;9.236;2022-12-08T06:30:14;0.83;;;0.83;;
5929;SDS011;2990;48.746;9.236;2022-12-08T06:32:40;0.40;;;0.40;;
5929;SDS011;2990;48.746;9.236;2022-12-08T06:35:05;0.50;;;0.50;;
5929;SDS011;2990;48.746;9.236;2022-12-08T06:37:31;0.50;;;0.50;;
5929;SDS011;2990;48.746;9.236;2022-12-08T06:39:57;0.40;;;0.40;;
5929;SDS011;2990;48.746;9.236;2022-12-08T06:42:23;0.70;;;0.70;;
5929;SDS011;2990;48.746;9.236;2022-12-08T06:45:07;0.70;;;0.70;;
5929;SDS011;2990;48.746;9.236;2022-12-08T06:47:34;1.05;;;1.05;;
5929;SDS011;2990;48.746;9.236;2022-12-08T06:50:00;0.47;;;0.47;;
5929;SDS011;2990;48.746;9.236;2022-12-08T06:52:25;0.50;;;0.50;;
5929;SDS011;2990;48.746;9.236;2022-12-08T06:54:51;0.68;;;0.68;;
5929;SDS011;2990;48.746;9.236;2022-12-08T06:57:16;0.63;;;0.63;;
5929;SDS011;2990;48.746;9.236;2022-12-08T06:59:42;0.50;;;0.50;;
5929;SDS011;2990;48.746;9.236;2022-12-08T07:02:08;0.50;;;0.50;;
5929;SDS011;2990;48.746;9.236;2022-12-08T07:04:34;0.40;;;0.40;;
5929;SDS011;2990;48.746;9.236;2022-12-08T07:07:00;0.98;;;0.73;;
5929;SDS011;2990;48.746;9.236;2022-12-08T07:09:25;0.68;;;0.68;;
5929;SDS011;2990;48.746;9.236;2022-12-08T07:11:51;0.30;;;0.30;;
5929;SDS011;2990;48.746;9.236;2022-12-08T07:14:17;0.73;;;0.73;;
5929;SDS011;2990;48.746;9.236;2022-12-08T07:16:44;0.70;;;0.63;;
5929;SDS011;2990;48.746;9.236;2022-12-08T07:19:09;1.13;;;1.13;;
5929;SDS011;2990;48.746;9.236;2022-12-08T07:21:35;0.70;;;0.70;;
5929;SDS011;2990;48.746;9.236;2022-12-08T07:24:01;0.60;;;0.60;;
5929;SDS011;2990;48.746;9.236;2022-12-08T07:26:26;0.52;;;0.52;;
5929;SDS011;2990;48.746;9.236;2022-12-08T07:28:52;0.30;;;0.30;;
5929;SDS011;2990;48.746;9.236;2022-12-08T07:31:19;0.73;;;0.73;;
5929;SDS011;2990;48.746;9.236;2022-12-08T07:33:47;0.40;;;0.40;;
5929;SDS011;2990;48.746;9.236;2022-12-08T07:36:14;0.50;;;0.50;;
5929;SDS011;2990;48.746;9.236;2022-12-08T07:38:40;0.40;;;0.40;;
5929;SDS011;2990;48.746;9.236;2022-12-08T07:41:10;1.80;;;0.60;;
5929;SDS011;2990;48.746;9.236;2022-12-08T07:43:40;0.80;;;0.80;;
5929;SDS011;2990;48.746;9.236;2022-12-08T07:46:07;1.02;;;1.02;;
5929;SDS011;2990;48.746;9.236;2022-12-08T07:48:36;0.57;;;0.57;;
5929;SDS011;2990;48.746;9.236;2022-12-08T07:51:02;0.60;;;0.60;;
5929;SDS011;2990;48.746;9.236;2022-12-08T07:53:28;0.77;;;0.77;;
5929;SDS011;2990;48.746;9.236;2022-12-08T07:55:57;0.88;;;0.88;;
5929;SDS011;2990;48.746;9.236;2022-12-08T07:58:23;1.00;;;1.00;;
5929;SDS011;2990;48.746;9.236;2022-12-08T08:00:49;0.70;;;0.70;;
5929;SDS011;2990;48.746;9.236;2022-12-08T08:03:15;0.88;;;0.88;;
5929;SDS011;2990;48.746;9.236;2022-12-08T08:05:41;0.80;;;0.75;;
5929;SDS011;2990;48.746;9.236;2022-12-08T08:08:08;0.73;;;0.73;;
5929;SDS011;2990;48.746;9.236;2022-12-08T08:10:34;0.77;;;0.77;;
5929;SDS011;2990;48.746;9.236;2022-12-08T08:13:00;0.80;;;0.80;;
5929;SDS011;2990;48.746;9.236;2022-12-08T08:15:26;0.50;;;0.50;;
5929;SDS011;2990;48.746;9.236;2022-12-08T08:17:52;1.10;;;1.10;;
5929;SDS011;2990;48.746;9.236;2022-12-08T08:20:18;0.57;;;0.57;;
5929;SDS011;2990;48.746;9.236;2022-12-08T08:22:48;0.73;;;0.73;;
5929;SDS011;2990;48.746;9.236;2022-12-08T08:25:15;0.82;;;0.82;;
5929;SDS011;2990;48.746;9.236;2022-12-08T08:27:41;0.75;;;0.75;;
5929;SDS011;2990;48.746;9.236;2022-12-08T08:30:08;0.50;;;0.50;;
5929;SDS011;2990;48.746;9.236;2022-12-08T08:32:35;0.83;;;0.83;;
5929;SDS011;2990;48.746;9.236;2022-12-08T08:35:01;0.82;;;0.82;;
5929;SDS011;2990;48.746;9.236;2022-12-08T08:37:28;0.50;;;0.50;;
5929;SDS011;2990;48.746;9.236;2022-12-08T08:39:53;0.82;;;0.82;;
5929;SDS011;2990;48.746;9.236;2022-12-08T08:42:19;1.02;;;1.02;;
5929;SDS011;2990;48.746;9.236;2022-12-08T08:44:44;1.13;;;1.13;;
5929;SDS011;2990;48.746;9.236;2022-12-08T08:47:10;0.52;;;0.52;;
5929;SDS011;2990;48.746;9.236;2022-12-08T08:49:36;1.30;;;1.30;;
5929;SDS011;2990;48.746;9.236;2022-12-08T08:52:02;0.88;;;0.88;;
5929;SDS011;2990;48.746;9.236;2022-12-08T08:54:29;1.00;;;1.00;;
5929;SDS011;2990;48.746;9.236;2022-12-08T08:56:58;1.33;;;1.33;;
5929;SDS011;2990;48.746;9.236;2022-12-08T08:59:24;1.20;;;1.20;;
5929;SDS011;2990;48.746;9.236;2022-12-08T09:01:51;1.90;;;1.90;;
5929;SDS011;2990;48.746;9.236;2022-12-08T09:04:17;2.25;;;2.25;;
5929;SDS011;2990;48.746;9.236;2022-12-08T09:06:43;2.00;;;2.00;;
5929;SDS011;2990;48.746;9.236;2022-12-08T09:09:09;1.73;;;1.73;;
5929;SDS011;2990;48.746;9.236;2022-12-08T09:11:35;3.17;;;2.97;;
5929;SDS011;2990;48.746;9.236;2022-12-08T09:14:01;2.70;;;2.70;;
5929;SDS011;2990;48.746;9.236;2022-12-08T09:16:26;2.65;;;2.65;;
5929;SDS011;2990;48.746;9.236;2022-12-08T09:18:52;2.58;;;2.55;;
5929;SDS011;2990;48.746;9.236;2022-12-08T09:21:20;3.22;;;3.22;;
5929;SDS011;2990;48.746;9.236;2022-12-08T09:23:55;4.13;;;4.13;;
5929;SDS011;2990;48.746;9.236;2022-12-08T09:26:22;2.42;;;2.33;;
5929;SDS011;2990;48.746;9.236;2022-12-08T09:28:48;2.13;;;2.13;;
5929;SDS011;2990;48.746;9.236;2022-12-08T09:31:16;3.42;;;3.42;;
5929;SDS011;2990;48.746;9.236;2022-12-08T09:33:45;2.83;;;2.83;;
5929;SDS011;2990;48.746;9.236;2022-12-08T09:36:12;2.58;;;2.58;;
5929;SDS011;2990;48.746;9.236;2022-12-08T09:38:39;2.63;;;2.63;;
5929;SDS011;2990;48.746;9.236;2022-12-08T09:41:12;2.85;;;2.85;;
5929;SDS011;2990;48.746;9.236;2022-12-08T09:43:51;2.78;;;2.78;;
5929;SDS011;2990;48.746;9.236;2022-12-08T09:46:38;2.90;;;2.90;;
5929;SDS011;2990;48.746;9.236;2022-12-08T09:49:10;3.38;;;3.38;;
5929;SDS011;2990;48.746;9.236;2022-12-08T09:51:39;3.03;;;3.03;;
5929;SDS011;2990;48.746;9.236;2022-12-08T09:54:23;3.20;;;3.20;;
5929;SDS011;2990;48.746;9.236;2022-12-08T09:56:58;3.30;;;3.30;;
5929;SDS011;2990;48.746;9.236;2022-12-08T09:59:28;5.20;;;5.10;;
5929;SDS011;2990;48.746;9.236;2022-12-08T10:01:57;4.78;;;4.78;;
5929;SDS011;2990;48.746;9.236;2022-12-08T10:04:29;5.80;;;5.70;;
5929;SDS011;2990;48.746;9.236;2022-12-08T10:10:06;7.55;;;7.55;;
5929;SDS011;2990;48.746;9.236;2022-12-08T10:12:47;7.57;;;7.53;;
5929;SDS011;2990;48.746;9.236;2022-12-08T10:18:16;4.55;;;4.55;;
5929;SDS011;2990;48.746;9.236;2022-12-08T10:20:45;7.43;;;7.32;;
5929;SDS011;2990;48.746;9.236;2022-12-08T10:23:15;10.30;;;10.20;;
5929;SDS011;2990;48.746;9.236;2022-12-08T10:26:11;6.82;;;6.82;;
5929;SDS011;2990;48.746;9.236;2022-12-08T10:28:40;7.68;;;7.47;;
5929;SDS011;2990;48.746;9.236;2022-12-08T10:31:17;7.82;;;7.72;;
5929;SDS011;2990;48.746;9.236;2022-12-08T10:33:47;37.95;;;36.63;;
5929;SDS011;2990;48.746;9.236;2022-12-08T10:36:18;9.20;;;9.20;;
5929;SDS011;2990;48.746;9.236;2022-12-08T10:38:44;11.82;;;11.63;;
5929;SDS011;2990;48.746;9.236;2022-12-08T10:48:36;18.52;;;18.23;;
5929;SDS011;2990;48.746;9.236;2022-12-08T10:51:22;15.07;;;14.85;;
5929;SDS011;2990;48.746;9.236;2022-12-08T10:54:02;11.35;;;11.23;;
5929;SDS011;2990;48.746;9.236;2022-12-08T10:56:30;14.30;;;14.00;;
5929;SDS011;2990;48.746;9.236;2022-12-08T11:01:49;21.65;;;21.15;;
5929;SDS011;2990;48.746;9.236;2022-12-08T11:04:28;24.40;;;23.70;;
5929;SDS011;2990;48.746;9.236;2022-12-08T11:07:03;18.30;;;17.90;;
5929;SDS011;2990;48.746;9.236;2022-12-08T11:09:36;22.65;;;22.10;;
5929;SDS011;2990;48.746;9.236;2022-12-08T11:12:16;23.20;;;22.50;;
5929;SDS011;2990;48.746;9.236;2022-12-08T11:19:56;20.13;;;19.67;;
5929;SDS011;2990;48.746;9.236;2022-12-08T11:25:17;18.80;;;18.42;;
5929;SDS011;2990;48.746;9.236;2022-12-08T11:27:44;21.65;;;20.98;;
5929;SDS011;2990;48.746;9.236;2022-12-08T11:30:22;27.92;;;27.02;;
5929;SDS011;2990;48.746;9.236;2022-12-08T11:33:20;25.92;;;25.20;;
5929;SDS011;2990;48.746;9.236;2022-12-08T11:35:51;20.15;;;19.73;;
5929;SDS011;2990;48.746;9.236;2022-12-08T11:38:29;24.10;;;23.50;;
5929;SDS011;2990;48.746;9.236;2022-12-08T11:40:57;21.15;;;20.65;;
5929;SDS011;2990;48.746;9.236;2022-12-08T11:43:36;24.33;;;23.52;;
5929;SDS011;2990;48.746;9.236;2022-12-08T11:46:17;19.50;;;19.13;;
5929;SDS011;2990;48.746;9.236;2022-12-08T11:48:49;15.40;;;15.20;;
5929;SDS011;2990;48.746;9.236;2022-12-08T11:54:12;12.57;;;12.48;;
5929;SDS011;2990;48.746;9.236;2022-12-08T11:57:10;11.50;;;11.43;;
5929;SDS011;2990;48.746;9.236;2022-12-08T11:59:41;10.73;;;10.65;;
5929;SDS011;2990;48.746;9.236;2022-12-08T12:04:43;28.15;;;27.25;;
5929;SDS011;2990;48.746;9.236;2022-12-08T12:10:35;18.98;;;18.58;;
5929;SDS011;2990;48.746;9.236;2022-12-08T12:18:50;12.57;;;12.48;;
5929;SDS011;2990;48.746;9.236;2022-12-08T12:21:27;10.93;;;10.77;;
5929;SDS011;2990;48.746;9.236;2022-12-08T12:24:25;8.98;;;8.98;;
5929;SDS011;2990;48.746;9.236;2022-12-08T12:29:27;10.10;;;10.00;;
5929;SDS011;2990;48.746;9.236;2022-12-08T12:31:56;10.60;;;10.50;;
5929;SDS011;2990;48.746;9.236;2022-12-08T12:34:30;9.35;;;9.25;;
5929;SDS011;2990;48.746;9.236;2022-12-08T12:37:03;5.55;;;5.55;;
5929;SDS011;2990;48.746;9.236;2022-12-08T12:39:44;9.65;;;9.55;;
5929;SDS011;2990;48.746;9.236;2022-12-08T12:45:20;6.63;;;6.63;;
5929;SDS011;2990;48.746;9.236;2022-12-08T12:47:51;9.88;;;9.77;;
5929;SDS011;2990;48.746;9.236;2022-12-08T12:52:58;14.00;;;13.80;;
5929;SDS011;2990;48.746;9.236;2022-12-08T13:03:38;15.50;;;15.30;;
5929;SDS011;2990;48.746;9.236;2022-12-08T13:06:07;14.93;;;14.73;;
5929;SDS011;2990;48.746;9.236;2022-12-08T13:08:36;17.10;;;16.77;;
5929;SDS011;2990;48.746;9.236;2022-12-08T13:11:05;16.27;;;16.00;;
5929;SDS011;2990;48.746;9.236;2022-12-08T13:13:38;22.63;;;22.08;;
5929;SDS011;2990;48.746;9.236;2022-12-08T13:16:25;25.63;;;24.88;;
5929;SDS011;2990;48.746;9.236;2022-12-08T13:18:55;18.27;;;17.92;;
5929;SDS011;2990;48.746;9.236;2022-12-08T13:21:23;17.80;;;17.50;;
5929;SDS011;2990;48.746;9.236;2022-12-08T13:24:13;15.65;;;15.35;;
5929;SDS011;2990;48.746;9.236;2022-12-08T13:29:29;13.60;;;13.43;;
5929;SDS011;2990;48.746;9.236;2022-12-08T13:31:59;13.98;;;13.82;;
5929;SDS011;2990;48.746;9.236;2022-12-08T13:34:34;12.52;;;12.43;;
5929;SDS011;2990;48.746;9.236;2022-12-08T13:37:19;13.20;;;12.38;;
5929;SDS011;2990;48.746;9.236;2022-12-08T13:39:52;9.25;;;9.15;;
5929;SDS011;2990;48.746;9.236;2022-12-08T13:42:23;9.65;;;9.55;;
5929;SDS011;2990;48.746;9.236;2022-12-08T13:44:58;7.20;;;7.20;;
5929;SDS011;2990;48.746;9.236;2022-12-08T13:47:43;7.18;;;7.18;;
5929;SDS011;2990;48.746;9.236;2022-12-08T13:50:23;6.18;;;6.18;;
5929;SDS011;2990;48.746;9.236;2022-12-08T13:52:57;3.92;;;3.92;;
5929;SDS011;2990;48.746;9.236;2022-12-08T13:55:50;4.63;;;4.63;;
5929;SDS011;2990;48.746;9.236;2022-12-08T13:58:33;4.32;;;4.22;;
5929;SDS011;2990;48.746;9.236;2022-12-08T14:09:19;2.60;;;2.60;;
5929;SDS011;2990;48.746;9.236;2022-12-08T14:11:51;2.92;;;2.92;;
5929;SDS011;2990;48.746;9.236;2022-12-08T14:14:28;2.72;;;2.72;;
5929;SDS011;2990;48.746;9.236;2022-12-08T14:17:00;3.33;;;3.33;;
5929;SDS011;2990;48.746;9.236;2022-12-08T14:19:27;2.65;;;2.65;;
5929;SDS011;2990;48.746;9.236;2022-12-08T14:22:30;3.13;;;2.95;;
5929;SDS011;2990;48.746;9.236;2022-12-08T14:24:47;2.13;;;2.13;;
5929;SDS011;2990;48.746;9.236;2022-12-08T14:27:16;3.50;;;3.50;;
5929;SDS011;2990;48.746;9.236;2022-12-08T14:29:50;2.80;;;2.70;;
5929;SDS011;2990;48.746;9.236;2022-12-08T14:37:24;1.98;;;1.98;;
5929;SDS011;2990;48.746;9.236;2022-12-08T14:39:51;2.55;;;2.55;;
5929;SDS011;2990;48.746;9.236;2022-12-08T14:42:22;2.25;;;2.25;;
5929;SDS011;2990;48.746;9.236;2022-12-08T14:44:54;2.50;;;2.50;;
5929;SDS011;2990;48.746;9.236;2022-12-08T14:47:29;2.22;;;2.22;;
5929;SDS011;2990;48.746;9.236;2022-12-08T14:49:58;1.58;;;1.58;;
5929;SDS011;2990;48.746;9.236;2022-12-08T14:52:26;1.27;;;1.27;;
5929;SDS011;2990;48.746;9.236;2022-12-08T14:54:53;1.80;;;1.80;;
5929;SDS011;2990;48.746;9.236;2022-12-08T14:57:19;2.28;;;2.28;;
5929;SDS011;2990;48.746;9.236;2022-12-08T14:59:45;1.45;;;1.45;;
5929;SDS011;2990;48.746;9.236;2022-12-08T15:04:46;1.63;;;1.63;;
5929;SDS011;2990;48.746;9.236;2022-12-08T15:07:18;0.93;;;0.93;;
5929;SDS011;2990;48.746;9.236;2022-12-08T15:09:48;1.42;;;1.42;;
5929;SDS011;2990;48.746;9.236;2022-12-08T15:12:31;1.48;;;1.48;;
5929;SDS011;2990;48.746;9.236;2022-12-08T15:14:59;1.80;;;1.80;;
5929;SDS011;2990;48.746;9.236;2022-12-08T15:17:41;1.35;;;1.35;;
5929;SDS011;2990;48.746;9.236;2022-12-08T15:23:03;1.83;;;1.83;;
5929;SDS011;2990;48.746;9.236;2022-12-08T15:25:29;2.03;;;2.03;;
5929;SDS011;2990;48.746;9.236;2022-12-08T15:27:55;1.83;;;1.83;;
5929;SDS011;2990;48.746;9.236;2022-12-08T15:30:22;1.63;;;1.63;;
5929;SDS011;2990;48.746;9.236;2022-12-08T15:32:50;15.20;;;14.73;;
5929;SDS011;2990;48.746;9.236;2022-12-08T15:35:17;1.60;;;1.60;;
5929;SDS011;2990;48.746;9.236;2022-12-08T15:37:42;1.83;;;1.83;;
5929;SDS011;2990;48.746;9.236;2022-12-08T15:40:18;1.15;;;1.15;;
5929;SDS011;2990;48.746;9.236;2022-12-08T15:42:47;1.70;;;1.70;;
5929;SDS011;2990;48.746;9.236;2022-12-08T15:45:13;1.23;;;1.23;;
5929;SDS011;2990;48.746;9.236;2022-12-08T15:47:40;1.17;;;1.17;;
5929;SDS011;2990;48.746;9.236;2022-12-08T15:50:09;1.73;;;1.73;;
5929;SDS011;2990;48.746;9.236;2022-12-08T15:52:39;1.27;;;1.27;;
5929;SDS011;2990;48.746;9.236;2022-12-08T15:55:05;0.75;;;0.75;;
5929;SDS011;2990;48.746;9.236;2022-12-08T15:57:30;1.30;;;1.30;;
5929;SDS011;2990;48.746;9.236;2022-12-08T15:59:56;0.70;;;0.70;;
5929;SDS011;2990;48.746;9.236;2022-12-08T16:02:22;1.08;;;1.08;;
5929;SDS011;2990;48.746;9.236;2022-12-08T16:04:48;1.05;;;1.05;;
5929;SDS011;2990;48.746;9.236;2022-12-08T16:07:18;0.80;;;0.80;;
5929;SDS011;2990;48.746;9.236;2022-12-08T16:09:52;1.10;;;1.10;;
5929;SDS011;2990;48.746;9.236;2022-12-08T16:12:21;0.90;;;0.90;;
5929;SDS011;2990;48.746;9.236;2022-12-08T16:15:07;1.33;;;1.33;;
5929;SDS011;2990;48.746;9.236;2022-12-08T16:17:33;2.00;;;1.95;;
5929;SDS011;2990;48.746;9.236;2022-12-08T16:20:00;0.90;;;0.90;;
5929;SDS011;2990;48.746;9.236;2022-12-08T16:22:27;1.17;;;1.17;;
5929;SDS011;2990;48.746;9.236;2022-12-08T16:24:54;1.67;;;1.67;;
5929;SDS011;2990;48.746;9.236;2022-12-08T16:27:21;0.85;;;0.85;;
5929;SDS011;2990;48.746;9.236;2022-12-08T16:29:52;0.80;;;0.80;;
5929;SDS011;2990;48.746;9.236;2022-12-08T16:32:18;1.00;;;1.00;;
5929;SDS011;2990;48.746;9.236;2022-12-08T16:34:44;1.00;;;1.00;;
5929;SDS011;2990;48.746;9.236;2022-12-08T16:37:13;0.80;;;0.80;;
5929;SDS011;2990;48.746;9.236;2022-12-08T16:39:41;0.95;;;0.95;;
5929;SDS011;2990;48.746;9.236;2022-12-08T16:42:13;1.35;;;1.08;;
5929;SDS011;2990;48.746;9.236;2022-12-08T16:45:24;0.75;;;0.75;;
5929;SDS011;2990;48.746;9.236;2022-12-08T16:47:54;1.95;;;0.98;;
5929;SDS011;2990;48.746;9.236;2022-12-08T16:50:31;1.42;;;1.42;;
5929;SDS011;2990;48.746;9.236;2022-12-08T16:53:02;1.25;;;1.25;;
5929;SDS011;2990;48.746;9.236;2022-12-08T16:55:30;0.80;;;0.80;;
5929;SDS011;2990;48.746;9.236;2022-12-08T16:57:56;0.80;;;0.80;;
5929;SDS011;2990;48.746;9.236;2022-12-08T17:00:23;1.13;;;1.13;;
5929;SDS011;2990;48.746;9.236;2022-12-08T17:02:50;1.42;;;0.90;;
5929;SDS011;2990;48.746;9.236;2022-12-08T17:05:17;0.75;;;0.75;;
5929;SDS011;2990;48.746;9.236;2022-12-08T17:07:45;1.10;;;1.10;;
5929;SDS011;2990;48.746;9.236;2022-12-08T17:10:13;1.00;;;1.00;;
5929;SDS011;2990;48.746;9.236;2022-12-08T17:12:40;1.30;;;1.30;;
5929;SDS011;2990;48.746;9.236;2022-12-08T17:15:07;1.08;;;1.08;;
5929;SDS011;2990;48.746;9.236;2022-12-08T17:17:38;1.50;;;1.50;;
5929;SDS011;2990;48.746;9.236;2022-12-08T17:20:04;0.73;;;0.73;;
5929;SDS011;2990;48.746;9.236;2022-12-08T17:22:32;0.90;;;0.90;;
5929;SDS011;2990;48.746;9.236;2022-12-08T17:24:59;1.80;;;1.33;;